PDT,Max TemperatureF,Mean TemperatureF,Min TemperatureF,Max Dew PointF,MeanDew PointF,Min DewpointF,Max Humidity, Mean Humidity, Min Humidity, Max Sea Level PressureIn, Mean Sea Level PressureIn, Min Sea Level PressureIn, Max VisibilityMiles, Mean VisibilityMiles, Min VisibilityMiles, Max Wind SpeedMPH, Mean Wind SpeedMPH, Max Gust SpeedMPH,PrecipitationIn, CloudCover, Events, WindDirDegrees
2013-6-1,107,88,70,60,48,25,68,29,6,29.74,29.68,29.60,10,10,8,8,2,,0.00,0,,265
2013-6-2,109,92,75,63,49,33,48,26,11,29.66,29.60,29.52,10,10,9,17,6,21,0.00,0,,131
2013-6-3,102,86,69,60,45,33,50,25,11,29.71,29.64,29.58,10,10,10,10,6,16,0.00,0,,144
2013-6-4,104,88,72,55,42,33,52,24,9,29.77,29.71,29.66,10,10,10,10,4,,0.00,0,,192
2013-6-5,106,86,66,53,39,23,47,22,6,29.81,29.74,29.66,10,10,10,8,4,,0.00,0,,244
2013-6-6,109,92,75,49,37,24,28,17,5,29.74,29.67,29.59,10,10,10,12,5,,0.00,0,,262
2013-6-7,111,92,73,49,39,29,29,17,7,29.68,29.62,29.54,10,10,8,10,5,,0.00,0,,195
2013-6-8,106,90,73,69,57,43,67,39,16,29.72,29.66,29.59,10,10,10,17,8,,0.00,0,,126
2013-6-9,102,86,71,67,56,36,66,40,10,29.80,29.73,29.67,10,10,7,14,7,,0.00,0,,116
2013-6-10,105,87,70,63,47,31,59,29,11,29.78,29.72,29.66,10,10,10,16,7,22,0.00,0,,138
2013-6-11,106,89,72,53,39,24,33,18,6,29.81,29.75,29.68,10,10,10,13,4,,0.00,0,,122
2013-6-12,106,90,75,64,50,34,48,27,13,29.81,29.75,29.71,10,10,9,18,7,26,0.00,0,,341
2013-6-13,107,90,75,49,40,32,27,18,8,29.84,29.76,29.67,10,10,10,13,6,,0.00,0,,158
2013-6-14,105,88,73,67,43,26,69,28,7,29.78,29.71,29.62,10,10,8,15,6,,0.00,0,,175
2013-6-15,105,91,78,44,28,16,21,11,6,29.78,29.73,29.69,10,10,9,18,9,26,0.00,0,,254
2013-6-16,105,89,73,40,24,14,20,11,4,29.85,29.78,29.72,10,10,9,16,5,22,0.00,0,,272
2013-6-17,107,88,70,41,33,18,31,17,5,29.83,29.75,29.68,10,10,3,10,6,,0.00,0,,257
2013-6-18,109,90,70,54,37,23,43,19,5,29.75,29.68,29.60,10,10,6,18,8,24,0.00,0,,214
2013-6-19,106,88,72,43,32,22,27,15,5,29.68,29.64,29.58,10,10,10,20,9,24,0.00,0,,263
2013-6-20,104,86,71,58,36,27,40,18,8,29.73,29.66,29.61,10,10,9,13,7,,0.00,0,,196
2013-6-21,104,86,68,55,39,29,61,21,9,29.76,29.69,29.62,10,10,8,17,7,26,0.00,0,,229
2013-6-22,104,86,71,54,36,30,43,18,8,29.76,29.68,29.60,10,10,8,16,8,20,0.00,0,,260
2013-6-23,104,86,70,61,43,37,57,25,11,29.70,29.64,29.57,10,10,7,23,10,28,0.00,0,,225
2013-6-24,100,88,75,54,40,26,39,22,7,29.75,29.71,29.63,10,10,9,23,15,32,0.00,0,,255
2013-6-25,102,88,73,58,53,49,51,32,17,29.84,29.77,29.71,10,10,10,15,6,22,0.00,0,,310
2013-6-26,106,92,78,68,57,45,60,34,15,29.88,29.82,29.77,10,10,9,16,6,22,0.00,0,,127
2013-6-27,109,93,77,69,58,51,52,33,15,29.94,29.86,29.79,10,10,10,12,4,,0.00,0,,150
2013-6-28,118,98,80,53,46,36,33,19,7,29.83,29.74,29.63,10,10,9,16,6,,0.00,1,,262
2013-6-29,120,104,87,66,50,37,48,21,7,29.68,29.64,29.57,10,10,8,22,8,28,0.00,0,,178
2013-6-30,113,96,82,72,67,63,63,43,21,29.73,29.65,29.55,10,10,10,17,4,,0.00,0,,149